Latest Weather Observations for Perisher Valley

IDN60801

Issued at 9:32 pm EDT Saturday 13 February 2016 (issued every 30 minutes, with the page automatically refreshed every 10 minutes)

About weather observations | Map of weather stations | Latest weather observations for NSW | Other Formats
Station Details ID: 071075 Name: PERISHER VALLEY AWS Lat: -36.41 Lon: 148.41 Height: 1738.0 m
Data from the previous 72 hours. | See also: Recent months at Perisher Valley
Date/Time
EDT
Temp
°C
App
Temp
°C
Dew
Point
Rel
Hum
%
Delta-T
°C
Wind Press
QNH
hPa
Press
MSL
hPa
Rain
since 9 am
mm
Dir
 
Spd
km/h
Gust
km/h
Spd
kts
Gust
kts
13/09:30pm 17.6 15.0 5.9 46 6.3 W 9 24 5 13 - - 0.0
13/09:00pm 17.6 15.4 6.2 47 6.1 W 7 17 4 9 - - 0.0
13/08:30pm 17.7 14.5 6.9 49 5.9 W 13 26 7 14 - - 0.0
13/08:00pm 18.0 16.1 6.8 48 6.1 WNW 6 19 3 10 - - 0.0
13/07:30pm 18.5 14.6 7.0 47 6.3 W 17 33 9 18 - - 0.0
13/07:00pm 19.5 17.3 7.9 47 6.5 W 9 32 5 17 - - 0.0
13/06:30pm 19.8 15.7 8.5 48 6.4 W 20 35 11 19 - - 0.0
13/06:00pm 20.3 17.5 8.6 47 6.7 W 13 32 7 17 - - 0.0
13/05:30pm 19.8 16.6 8.5 48 6.4 W 15 32 8 17 - - 0.0
13/05:00pm 18.9 14.3 8.0 49 6.1 W 22 35 12 19 - - 0.0
13/04:30pm 19.1 15.4 7.8 48 6.3 W 17 30 9 16 - - 0.0
13/04:00pm 20.0 15.0 8.0 46 6.8 W 24 44 13 24 - - 0.0
13/03:30pm 20.0 15.2 4.9 37 8.0 W 19 39 10 21 - - 0.0
13/03:00pm 19.2 12.9 5.6 41 7.3 W 28 44 15 24 - - 0.0
13/02:30pm 19.7 14.9 5.4 39 7.7 W 20 35 11 19 - - 0.0
13/02:00pm 19.0 12.0 4.0 37 7.8 W 30 46 16 25 - - 0.0
13/01:58pm 19.1 12.3 3.3 35 8.1 W 28 46 15 25 - - 0.0
13/01:30pm 19.4 13.8 3.2 34 8.3 W 22 41 12 22 - - 0.0
13/01:00pm 19.0 13.6 6.2 43 6.9 W 24 52 13 28 - - 0.0
13/12:43pm 18.6 12.0 4.4 39 7.4 WNW 28 48 15 26 - - 0.0
13/12:30pm 18.8 13.2 5.6 42 7.1 WNW 24 39 13 21 - - 0.0
13/12:12pm 18.7 12.3 5.2 41 7.2 WNW 28 52 15 28 - - 0.0
13/12:00pm 18.9 13.8 6.1 43 6.9 W 22 41 12 22 - - 0.0
13/11:30am 18.4 15.3 8.7 53 5.5 WNW 15 33 8 18 - - 0.0
13/11:00am 17.5 13.7 9.2 58 4.7 W 19 37 10 20 - - 0.0
13/10:30am 16.3 11.5 9.0 62 4.1 W 24 37 13 20 - - 0.0
13/10:00am 16.9 12.4 8.6 58 4.7 WNW 22 35 12 19 - - 0.0
13/09:30am 16.8 15.0 9.5 62 4.2 WNW 9 20 5 11 - - 0.0
13/09:00am 16.1 13.9 9.5 65 3.7 WSW 11 26 6 14 - - 0.0
13/08:30am 15.0 11.5 8.7 66 3.5 WSW 17 35 9 19 - - 0.0
13/08:00am 14.7 11.5 8.4 66 3.5 WSW 15 32 8 17 - - 0.0
13/07:30am 14.6 10.9 8.1 65 3.6 W 17 39 9 21 - - 0.0
13/07:00am 14.1 8.5 7.2 63 3.7 W 26 41 14 22 - - 0.0
13/06:30am 14.0 9.1 7.1 63 3.7 W 22 37 12 20 - - 0.0
13/06:29am 14.0 9.5 7.1 63 3.7 W 20 37 11 20 - - 0.0
13/06:00am 12.6 10.6 7.1 69 2.9 W 7 19 4 10 - - 0.0
13/05:30am 12.1 10.0 6.6 69 2.9 WSW 7 11 4 6 - - 0.0
13/05:00am 11.7 9.4 5.6 66 3.1 WSW 7 22 4 12 - - 0.0
13/04:30am 13.2 10.2 6.1 62 3.7 W 11 20 6 11 - - 0.0
13/04:00am 12.8 10.2 5.9 63 3.6 W 9 24 5 13 - - 0.0
13/03:30am 10.2 8.3 4.8 69 2.7 NNW 4 7 2 4 - - 0.0
13/03:00am 7.7 6.1 4.5 80 1.6 NW 2 6 1 3 - - 0.0
13/02:30am 8.2 6.6 4.6 78 1.8 W 2 6 1 3 - - 0.0
13/02:00am 8.3 7.0 4.3 76 1.9 CALM 0 2 0 1 - - 0.0
13/01:30am 9.5 7.2 4.9 73 2.3 W 6 9 3 5 - - 0.0
13/01:00am 7.5 5.5 4.3 80 1.5 WSW 4 7 2 4 - - 0.0
13/12:30am 7.1 5.4 3.9 80 1.5 SSW 2 2 1 1 - - 0.0
13/12:00am 7.9 6.2 3.9 76 1.9 SSW 2 4 1 2 - - 0.0
 
Date/Time
EDT
Temp
°C
App
Temp
°C
Dew
Point
Rel
Hum
%
Delta-T
°C
Wind Press
QNH
hPa
Press
MSL
hPa
Rain
since 9 am
mm
Dir
 
Spd
km/h
Gust
km/h
Spd
kts
Gust
kts
12/11:30pm 8.7 7.4 4.3 74 2.1 CALM 0 2 0 1 - - 0.0
12/11:00pm 9.0 7.6 3.6 69 2.6 CALM 0 0 0 0 - - 0.0
12/10:30pm 11.6 9.9 3.9 59 3.8 NW 2 4 1 2 - - 0.0
12/10:00pm 13.2 10.8 4.4 55 4.4 NW 6 9 3 5 - - 0.0
12/09:30pm 12.6 10.7 5.1 60 3.8 WNW 4 7 2 4 - - 0.0
12/09:00pm 13.2 11.0 5.4 59 4.0 WNW 6 9 3 5 - - 0.0
12/08:30pm 13.5 11.3 5.2 57 4.3 WNW 6 9 3 5 - - 0.0
12/08:00pm 15.3 12.8 5.0 50 5.3 WNW 7 11 4 6 - - 0.0
12/07:30pm 16.0 13.9 5.6 50 5.5 W 6 13 3 7 - - 0.0
12/07:00pm 18.5 16.9 6.4 45 6.6 W 4 9 2 5 - - 0.0
12/06:30pm 18.5 15.9 6.0 44 6.7 W 9 19 5 10 - - 0.0
12/06:00pm 18.8 16.2 6.0 43 6.9 W 9 17 5 9 - - 0.0
12/05:30pm 19.6 17.4 6.0 41 7.4 WNW 7 20 4 11 - - 0.0
12/05:00pm 20.0 17.4 4.1 35 8.3 W 7 13 4 7 - - 0.0
12/04:30pm 19.9 17.0 4.4 36 8.2 W 9 19 5 10 - - 0.0
12/04:00pm 19.5 16.3 3.2 34 8.4 WSW 9 19 5 10 - - 0.0
12/03:30pm 19.3 15.9 3.9 36 8.0 W 11 22 6 12 - - 0.0
12/03:00pm 18.9 15.4 3.5 36 7.9 WNW 11 24 6 13 - - 0.0
12/02:30pm 19.0 15.4 2.8 34 8.2 W 11 24 6 13 - - 0.0
12/02:00pm 19.4 16.1 2.3 32 8.6 WNW 9 26 5 14 - - 0.0
12/01:30pm 19.2 15.5 2.6 33 8.4 W 11 22 6 12 - - 0.0
12/01:00pm 19.2 15.5 2.1 32 8.6 NW 11 26 6 14 - - 0.0
12/12:30pm 19.2 16.1 3.8 36 8.0 WNW 9 22 5 12 - - 0.0
12/12:00pm 18.8 15.2 3.0 35 8.1 WSW 11 22 6 12 - - 0.0
12/11:30am 18.7 15.2 3.3 36 7.9 SW 11 24 6 13 - - 0.0
12/11:00am 19.0 15.6 4.0 37 7.8 SW 11 24 6 13 - - 0.0
12/10:30am 17.0 14.5 5.0 45 6.3 SW 7 28 4 15 - - 0.0
12/10:00am 17.4 15.1 5.7 46 6.2 SW 7 17 4 9 - - 0.0
12/09:30am 16.9 15.4 7.0 52 5.4 S 4 9 2 5 - - 0.0
12/09:00am 15.7 13.6 5.9 52 5.2 WNW 6 11 3 6 - - 0.6
12/08:30am 14.5 13.8 8.5 67 3.3 W 2 7 1 4 - - 0.6
12/08:00am 12.2 11.7 9.2 82 1.7 SW 2 7 1 4 - - 0.6
12/07:30am 8.9 7.9 7.2 89 0.9 SW 2 6 1 3 - - 0.6
12/07:00am 7.2 5.7 5.0 86 1.1 WSW 2 7 1 4 - - 0.6
12/06:30am 8.8 6.7 5.9 82 1.5 WNW 6 9 3 5 - - 0.6
12/06:00am 10.2 8.6 8.0 86 1.2 WNW 6 11 3 6 - - 0.6
12/05:30am 6.8 5.0 5.4 91 0.7 WNW 4 7 2 4 - - 0.6
12/05:00am 6.2 4.7 4.8 91 0.7 W 2 6 1 3 - - 0.6
12/04:30am 6.2 4.7 4.8 91 0.7 W 2 6 1 3 - - 0.6
12/04:00am 6.0 4.4 4.6 91 0.7 SSW 2 6 1 3 - - 0.6
12/03:30am 5.7 4.5 4.5 92 0.6 CALM 0 2 0 1 - - 0.6
12/03:00am 5.8 4.7 4.9 94 0.4 CALM 0 4 0 2 - - 0.6
12/02:30am 5.7 4.6 5.1 96 0.3 CALM 0 4 0 2 - - 0.6
12/02:00am 6.5 5.6 5.9 96 0.3 CALM 0 0 0 0 - - 0.6
12/01:30am 6.9 6.0 6.2 95 0.4 CALM 0 2 0 1 - - 0.6
12/01:00am 7.1 5.8 5.9 92 0.6 NNE 2 4 1 2 - - 0.6
12/12:30am 6.2 4.2 4.4 88 0.9 W 4 7 2 4 - - 0.6
12/12:00am 8.4 7.5 6.0 85 1.2 CALM 0 2 0 1 - - 0.6
 
Date/Time
EDT
Temp
°C
App
Temp
°C
Dew
Point
Rel
Hum
%
Delta-T
°C
Wind Press
QNH
hPa
Press
MSL
hPa
Rain
since 9 am
mm
Dir
 
Spd
km/h
Gust
km/h
Spd
kts
Gust
kts
11/11:30pm 9.6 9.0 7.5 87 1.1 CALM 0 2 0 1 - - 0.6
11/11:00pm 11.2 10.1 8.6 84 1.4 NNW 4 7 2 4 - - 0.6
11/10:30pm 11.6 11.0 9.0 84 1.4 E 2 13 1 7 - - 0.6
11/10:00pm 12.0 11.0 10.2 89 1.0 N 6 13 3 7 - - 0.4
11/09:30pm 11.9 11.3 10.5 91 0.8 NNE 4 7 2 4 - - 0.4
11/09:00pm 12.4 11.8 10.5 88 1.1 SSE 4 17 2 9 - - 0.2
11/08:30pm 13.0 12.2 9.8 81 1.8 ESE 4 6 2 3 - - 0.0
11/08:00pm 13.5 12.4 10.5 82 1.7 NNE 7 11 4 6 - - 0.0
11/07:30pm 14.0 12.3 11.3 84 1.6 NE 11 19 6 10 - - 0.0
11/07:00pm 14.7 12.1 12.0 84 1.6 NE 17 24 9 13 - - 0.0
11/06:30pm 16.1 14.7 7.1 55 4.9 ESE 4 13 2 7 - - 0.0
11/06:00pm 16.5 14.3 5.5 48 5.8 SSE 6 15 3 8 - - 0.0
11/05:30pm 16.4 14.6 7.1 54 5.1 SE 6 13 3 7 - - 0.0
11/05:00pm 17.6 15.6 8.5 55 5.1 ESE 9 19 5 10 - - 0.0
11/04:30pm 18.1 16.6 9.2 56 5.1 SE 7 17 4 9 - - 0.0
11/04:00pm 17.8 16.7 10.7 63 4.2 ESE 7 19 4 10 - - 0.0
11/03:30pm 16.8 15.1 7.7 55 5.0 SSE 6 17 3 9 - - 0.0
11/03:00pm 17.8 16.5 9.9 60 4.6 ESE 7 17 4 9 - - 0.0
11/02:30pm 16.2 14.4 9.6 65 3.8 ESE 9 19 5 10 - - 0.0
11/02:00pm 17.7 15.7 8.6 55 5.1 SE 9 19 5 10 - - 0.0
11/01:30pm 18.0 16.4 8.6 54 5.3 E 7 17 4 9 - - 0.0
11/01:00pm 16.6 15.3 11.3 71 3.1 ESE 9 15 5 8 - - 0.0
11/12:30pm 16.6 14.7 9.1 61 4.2 E 9 17 5 9 - - 0.0
11/12:00pm 17.6 16.5 8.5 55 5.1 S 4 9 2 5 - - 0.0
11/11:30am 18.4 16.7 7.5 49 6.0 SE 6 17 3 9 - - 0.0
11/11:00am 18.2 15.9 7.3 49 6.0 ENE 9 15 5 8 - - 0.0
11/10:30am 17.2 15.3 6.7 50 5.7 ENE 6 11 3 6 - - 0.0
11/10:00am 17.7 15.6 5.6 45 6.4 SE 6 9 3 5 - - 0.0
11/09:30am 17.7 16.6 8.6 55 5.1 E 4 9 2 5 - - 0.0
11/09:00am 16.5 15.8 9.9 65 3.8 ENE 4 6 2 3 - - 0.0
11/08:30am 14.4 14.0 9.8 74 2.6 ENE 2 4 1 2 - - 0.0
11/08:00am 11.0 10.0 8.8 86 1.2 SW 4 7 2 4 - - 0.0
11/07:30am 7.5 6.3 6.3 92 0.6 WSW 2 4 1 2 - - 0.0
11/07:00am 5.0 3.6 3.7 91 0.6 CALM 0 2 0 1 - - 0.0
11/06:30am 4.4 2.5 3.1 91 0.6 SW 2 4 1 2 - - 0.0
11/06:00am 5.3 3.6 4.0 91 0.6 SW 2 4 1 2 - - 0.0
11/05:30am 5.0 3.6 3.5 90 0.7 CALM 0 2 0 1 - - 0.0
11/05:00am 5.9 4.3 4.7 92 0.6 WSW 2 6 1 3 - - 0.0
11/04:30am 5.6 4.0 4.4 92 0.6 SW 2 6 1 3 - - 0.0
11/04:00am 6.3 4.1 5.1 92 0.6 SW 6 7 3 4 - - 0.0
11/03:30am 6.5 5.2 5.9 96 0.3 SW 2 6 1 3 - - 0.0
11/03:00am 6.5 5.2 5.9 96 0.3 SW 2 4 1 2 - - 0.0
11/02:30am 6.6 5.3 5.9 95 0.3 WSW 2 4 1 2 - - 0.0
11/02:00am 8.0 6.7 7.6 97 0.2 SW 4 4 2 2 - - 0.0
11/01:30am 7.4 5.9 6.7 95 0.4 SW 4 6 2 3 - - 0.0
11/01:00am 8.1 7.5 7.2 94 0.5 CALM 0 0 0 0 - - 0.0
11/12:30am 8.6 7.6 7.5 93 0.6 WSW 2 6 1 3 - - 0.0
11/12:00am 9.5 8.4 8.4 93 0.6 SW 4 7 2 4 - - 0.0
 
Date/Time
EDT
Temp
°C
App
Temp
°C
Dew
Point
Rel
Hum
%
Delta-T
°C
Wind Press
QNH
hPa
Press
MSL
hPa
Rain
since 9 am
mm
Dir
 
Spd
km/h
Gust
km/h
Spd
kts
Gust
kts
10/11:30pm 10.0 8.9 8.6 91 0.8 SW 4 7 2 4 - - 0.0
10/11:00pm 11.5 10.4 10.1 91 0.8 WSW 6 11 3 6 - - 0.0
10/10:30pm 12.0 11.0 10.4 90 0.9 W 6 11 3 6 - - 0.0
10/10:00pm 12.6 11.0 11.5 93 0.6 E 11 22 6 12 - - 0.0

Other Formats:

Comma delimited format used in spreadsheet applications
http://www.bom.gov.au/fwo/IDN60801/IDN60801.94915.axf

JavaScript Object Notation format (JSON) in row-major order
http://www.bom.gov.au/fwo/IDN60801/IDN60801.94915.json